sensor_id;sensor_type;location;lat;lon;timestamp;P1;durP1;ratioP1;P2;durP2;ratioP2
67516;SDS011;68821;59.134;37.894;2023-12-29T00:01:36;56.05;;;20.77;;
67516;SDS011;68821;59.134;37.894;2023-12-29T00:04:01;78.60;;;26.08;;
67516;SDS011;68821;59.134;37.894;2023-12-29T00:06:27;70.35;;;23.63;;
67516;SDS011;68821;59.134;37.894;2023-12-29T00:08:53;61.03;;;22.60;;
67516;SDS011;68821;59.134;37.894;2023-12-29T00:11:20;66.88;;;22.48;;
67516;SDS011;68821;59.134;37.894;2023-12-29T00:13:46;61.03;;;23.42;;
67516;SDS011;68821;59.134;37.894;2023-12-29T00:16:13;63.95;;;19.40;;
67516;SDS011;68821;59.134;37.894;2023-12-29T00:18:40;82.15;;;25.20;;
67516;SDS011;68821;59.134;37.894;2023-12-29T00:21:06;65.15;;;21.38;;
67516;SDS011;68821;59.134;37.894;2023-12-29T00:23:33;28.33;;;10.07;;
67516;SDS011;68821;59.134;37.894;2023-12-29T00:25:59;14.30;;;3.28;;
67516;SDS011;68821;59.134;37.894;2023-12-29T00:28:25;12.77;;;3.47;;
67516;SDS011;68821;59.134;37.894;2023-12-29T00:30:51;9.82;;;2.78;;
67516;SDS011;68821;59.134;37.894;2023-12-29T00:33:17;9.80;;;3.58;;
67516;SDS011;68821;59.134;37.894;2023-12-29T00:35:43;9.32;;;2.78;;
67516;SDS011;68821;59.134;37.894;2023-12-29T00:38:09;13.40;;;3.17;;
67516;SDS011;68821;59.134;37.894;2023-12-29T00:40:35;17.38;;;3.60;;
67516;SDS011;68821;59.134;37.894;2023-12-29T00:43:01;7.72;;;2.95;;
67516;SDS011;68821;59.134;37.894;2023-12-29T00:45:28;14.35;;;2.53;;
67516;SDS011;68821;59.134;37.894;2023-12-29T00:48:01;9.98;;;2.42;;
67516;SDS011;68821;59.134;37.894;2023-12-29T00:50:28;8.57;;;2.55;;
67516;SDS011;68821;59.134;37.894;2023-12-29T00:52:54;10.32;;;3.15;;
67516;SDS011;68821;59.134;37.894;2023-12-29T00:55:20;5.32;;;2.30;;
67516;SDS011;68821;59.134;37.894;2023-12-29T00:57:48;11.48;;;2.45;;
67516;SDS011;68821;59.134;37.894;2023-12-29T01:00:14;8.60;;;2.90;;
67516;SDS011;68821;59.134;37.894;2023-12-29T01:02:40;14.00;;;2.15;;
67516;SDS011;68821;59.134;37.894;2023-12-29T01:05:06;7.00;;;2.35;;
67516;SDS011;68821;59.134;37.894;2023-12-29T01:07:32;4.97;;;1.80;;
67516;SDS011;68821;59.134;37.894;2023-12-29T01:09:58;5.40;;;2.08;;
67516;SDS011;68821;59.134;37.894;2023-12-29T01:12:25;4.78;;;2.03;;
67516;SDS011;68821;59.134;37.894;2023-12-29T01:14:51;5.68;;;2.03;;
67516;SDS011;68821;59.134;37.894;2023-12-29T01:17:16;6.75;;;2.05;;
67516;SDS011;68821;59.134;37.894;2023-12-29T01:19:43;8.15;;;2.53;;
67516;SDS011;68821;59.134;37.894;2023-12-29T01:22:09;5.45;;;2.40;;
67516;SDS011;68821;59.134;37.894;2023-12-29T01:24:35;5.70;;;2.40;;
67516;SDS011;68821;59.134;37.894;2023-12-29T01:27:01;8.48;;;2.22;;
67516;SDS011;68821;59.134;37.894;2023-12-29T01:29:29;6.03;;;1.98;;
67516;SDS011;68821;59.134;37.894;2023-12-29T01:31:55;8.95;;;2.45;;
67516;SDS011;68821;59.134;37.894;2023-12-29T01:34:21;4.63;;;2.00;;
67516;SDS011;68821;59.134;37.894;2023-12-29T01:36:47;6.05;;;1.80;;
67516;SDS011;68821;59.134;37.894;2023-12-29T01:39:13;6.25;;;2.33;;
67516;SDS011;68821;59.134;37.894;2023-12-29T01:41:39;6.05;;;2.42;;
67516;SDS011;68821;59.134;37.894;2023-12-29T01:44:18;4.05;;;1.65;;
67516;SDS011;68821;59.134;37.894;2023-12-29T01:46:47;5.85;;;2.13;;
67516;SDS011;68821;59.134;37.894;2023-12-29T01:49:15;4.68;;;1.95;;
67516;SDS011;68821;59.134;37.894;2023-12-29T01:51:45;4.97;;;1.83;;
67516;SDS011;68821;59.134;37.894;2023-12-29T01:54:20;5.63;;;1.90;;
67516;SDS011;68821;59.134;37.894;2023-12-29T01:59:20;3.83;;;1.67;;
67516;SDS011;68821;59.134;37.894;2023-12-29T02:01:47;4.90;;;1.70;;
67516;SDS011;68821;59.134;37.894;2023-12-29T02:04:13;3.55;;;1.48;;
67516;SDS011;68821;59.134;37.894;2023-12-29T02:06:40;5.22;;;1.73;;
67516;SDS011;68821;59.134;37.894;2023-12-29T02:09:07;6.15;;;2.30;;
67516;SDS011;68821;59.134;37.894;2023-12-29T02:11:34;5.00;;;1.77;;
67516;SDS011;68821;59.134;37.894;2023-12-29T02:14:00;4.82;;;1.83;;
67516;SDS011;68821;59.134;37.894;2023-12-29T02:22:05;5.10;;;2.10;;
67516;SDS011;68821;59.134;37.894;2023-12-29T02:24:36;4.72;;;1.88;;
67516;SDS011;68821;59.134;37.894;2023-12-29T02:29:38;3.72;;;1.55;;
67516;SDS011;68821;59.134;37.894;2023-12-29T02:32:10;5.78;;;2.20;;
67516;SDS011;68821;59.134;37.894;2023-12-29T02:34:39;4.82;;;2.05;;
67516;SDS011;68821;59.134;37.894;2023-12-29T02:37:08;7.25;;;1.92;;
67516;SDS011;68821;59.134;37.894;2023-12-29T02:39:36;5.13;;;1.92;;
67516;SDS011;68821;59.134;37.894;2023-12-29T02:42:02;3.42;;;1.70;;
67516;SDS011;68821;59.134;37.894;2023-12-29T02:44:29;3.20;;;1.23;;
67516;SDS011;68821;59.134;37.894;2023-12-29T02:46:55;5.03;;;1.60;;
67516;SDS011;68821;59.134;37.894;2023-12-29T02:49:21;4.43;;;1.83;;
67516;SDS011;68821;59.134;37.894;2023-12-29T02:51:47;4.45;;;1.63;;
67516;SDS011;68821;59.134;37.894;2023-12-29T02:56:41;3.03;;;1.30;;
67516;SDS011;68821;59.134;37.894;2023-12-29T02:59:07;4.05;;;1.50;;
67516;SDS011;68821;59.134;37.894;2023-12-29T03:01:34;6.57;;;2.20;;
67516;SDS011;68821;59.134;37.894;2023-12-29T03:04:00;8.48;;;2.95;;
67516;SDS011;68821;59.134;37.894;2023-12-29T03:06:27;4.45;;;1.70;;
67516;SDS011;68821;59.134;37.894;2023-12-29T03:08:53;4.53;;;1.75;;
67516;SDS011;68821;59.134;37.894;2023-12-29T03:11:19;6.13;;;1.67;;
67516;SDS011;68821;59.134;37.894;2023-12-29T03:13:46;5.47;;;1.92;;
67516;SDS011;68821;59.134;37.894;2023-12-29T03:16:12;4.55;;;1.65;;
67516;SDS011;68821;59.134;37.894;2023-12-29T03:18:38;4.18;;;1.50;;
67516;SDS011;68821;59.134;37.894;2023-12-29T03:21:06;5.10;;;1.90;;
67516;SDS011;68821;59.134;37.894;2023-12-29T03:23:33;3.92;;;1.45;;
67516;SDS011;68821;59.134;37.894;2023-12-29T03:25:59;5.13;;;1.85;;
67516;SDS011;68821;59.134;37.894;2023-12-29T03:28:25;6.43;;;2.25;;
67516;SDS011;68821;59.134;37.894;2023-12-29T03:30:51;4.60;;;1.90;;
67516;SDS011;68821;59.134;37.894;2023-12-29T03:33:17;5.93;;;2.00;;
67516;SDS011;68821;59.134;37.894;2023-12-29T03:35:43;3.08;;;1.40;;
67516;SDS011;68821;59.134;37.894;2023-12-29T03:38:09;3.90;;;1.52;;
67516;SDS011;68821;59.134;37.894;2023-12-29T03:40:35;7.50;;;1.92;;
67516;SDS011;68821;59.134;37.894;2023-12-29T03:43:01;3.03;;;1.10;;
67516;SDS011;68821;59.134;37.894;2023-12-29T03:45:27;3.47;;;1.13;;
67516;SDS011;68821;59.134;37.894;2023-12-29T03:47:53;3.80;;;1.17;;
67516;SDS011;68821;59.134;37.894;2023-12-29T03:50:19;3.13;;;1.23;;
67516;SDS011;68821;59.134;37.894;2023-12-29T03:52:45;4.72;;;1.70;;
67516;SDS011;68821;59.134;37.894;2023-12-29T03:55:11;5.50;;;2.00;;
67516;SDS011;68821;59.134;37.894;2023-12-29T03:57:37;5.38;;;1.75;;
67516;SDS011;68821;59.134;37.894;2023-12-29T04:00:04;3.67;;;1.20;;
67516;SDS011;68821;59.134;37.894;2023-12-29T04:02:31;5.60;;;1.38;;
67516;SDS011;68821;59.134;37.894;2023-12-29T04:04:58;3.90;;;1.52;;
67516;SDS011;68821;59.134;37.894;2023-12-29T04:07:25;3.30;;;1.33;;
67516;SDS011;68821;59.134;37.894;2023-12-29T04:09:50;5.07;;;1.80;;
67516;SDS011;68821;59.134;37.894;2023-12-29T04:12:16;6.15;;;2.00;;
67516;SDS011;68821;59.134;37.894;2023-12-29T04:14:42;5.07;;;2.08;;
67516;SDS011;68821;59.134;37.894;2023-12-29T04:17:10;4.18;;;1.80;;
67516;SDS011;68821;59.134;37.894;2023-12-29T04:19:42;7.57;;;2.50;;
67516;SDS011;68821;59.134;37.894;2023-12-29T04:22:08;6.15;;;2.25;;
67516;SDS011;68821;59.134;37.894;2023-12-29T04:24:34;5.30;;;2.25;;
67516;SDS011;68821;59.134;37.894;2023-12-29T04:27:03;6.18;;;2.00;;
67516;SDS011;68821;59.134;37.894;2023-12-29T04:29:29;5.10;;;2.05;;
67516;SDS011;68821;59.134;37.894;2023-12-29T04:31:55;5.70;;;2.00;;
67516;SDS011;68821;59.134;37.894;2023-12-29T04:34:21;4.35;;;1.48;;
67516;SDS011;68821;59.134;37.894;2023-12-29T04:36:47;3.83;;;1.80;;
67516;SDS011;68821;59.134;37.894;2023-12-29T04:39:13;4.22;;;1.75;;
67516;SDS011;68821;59.134;37.894;2023-12-29T04:41:40;6.07;;;2.08;;
67516;SDS011;68821;59.134;37.894;2023-12-29T04:44:06;5.40;;;2.25;;
67516;SDS011;68821;59.134;37.894;2023-12-29T04:46:32;5.28;;;2.20;;
67516;SDS011;68821;59.134;37.894;2023-12-29T04:48:57;6.40;;;2.38;;
67516;SDS011;68821;59.134;37.894;2023-12-29T04:51:24;6.60;;;1.92;;
67516;SDS011;68821;59.134;37.894;2023-12-29T04:53:50;6.82;;;2.33;;
67516;SDS011;68821;59.134;37.894;2023-12-29T04:56:16;6.50;;;2.50;;
67516;SDS011;68821;59.134;37.894;2023-12-29T04:58:42;6.03;;;2.05;;
67516;SDS011;68821;59.134;37.894;2023-12-29T05:01:08;5.70;;;2.45;;
67516;SDS011;68821;59.134;37.894;2023-12-29T05:03:35;7.53;;;2.70;;
67516;SDS011;68821;59.134;37.894;2023-12-29T05:06:01;4.93;;;2.10;;
67516;SDS011;68821;59.134;37.894;2023-12-29T05:08:27;8.10;;;2.15;;
67516;SDS011;68821;59.134;37.894;2023-12-29T05:10:53;6.47;;;3.05;;
67516;SDS011;68821;59.134;37.894;2023-12-29T05:13:21;6.38;;;2.28;;
67516;SDS011;68821;59.134;37.894;2023-12-29T05:15:47;6.47;;;2.15;;
67516;SDS011;68821;59.134;37.894;2023-12-29T05:18:13;4.75;;;1.83;;
67516;SDS011;68821;59.134;37.894;2023-12-29T05:20:39;7.32;;;2.28;;
67516;SDS011;68821;59.134;37.894;2023-12-29T05:23:05;9.18;;;2.15;;
67516;SDS011;68821;59.134;37.894;2023-12-29T05:25:31;8.43;;;2.08;;
67516;SDS011;68821;59.134;37.894;2023-12-29T05:27:57;5.63;;;2.15;;
67516;SDS011;68821;59.134;37.894;2023-12-29T05:30:23;8.48;;;2.55;;
67516;SDS011;68821;59.134;37.894;2023-12-29T05:32:52;6.47;;;2.22;;
67516;SDS011;68821;59.134;37.894;2023-12-29T05:35:18;5.65;;;1.80;;
67516;SDS011;68821;59.134;37.894;2023-12-29T05:37:44;8.50;;;2.70;;
67516;SDS011;68821;59.134;37.894;2023-12-29T05:40:11;5.05;;;2.35;;
67516;SDS011;68821;59.134;37.894;2023-12-29T05:42:37;5.03;;;1.85;;
67516;SDS011;68821;59.134;37.894;2023-12-29T05:45:04;7.47;;;2.22;;
67516;SDS011;68821;59.134;37.894;2023-12-29T05:47:30;7.07;;;2.88;;
67516;SDS011;68821;59.134;37.894;2023-12-29T05:49:56;5.63;;;2.67;;
67516;SDS011;68821;59.134;37.894;2023-12-29T05:52:23;6.25;;;2.05;;
67516;SDS011;68821;59.134;37.894;2023-12-29T05:54:50;5.60;;;2.33;;
67516;SDS011;68821;59.134;37.894;2023-12-29T05:57:16;6.75;;;2.38;;
67516;SDS011;68821;59.134;37.894;2023-12-29T05:59:42;6.50;;;2.35;;
67516;SDS011;68821;59.134;37.894;2023-12-29T06:02:09;5.20;;;2.20;;
67516;SDS011;68821;59.134;37.894;2023-12-29T06:04:35;6.32;;;2.75;;
67516;SDS011;68821;59.134;37.894;2023-12-29T06:07:02;6.45;;;2.50;;
67516;SDS011;68821;59.134;37.894;2023-12-29T06:09:28;6.63;;;2.40;;
67516;SDS011;68821;59.134;37.894;2023-12-29T06:11:54;5.88;;;2.38;;
67516;SDS011;68821;59.134;37.894;2023-12-29T06:14:21;7.57;;;2.97;;
67516;SDS011;68821;59.134;37.894;2023-12-29T06:16:47;4.97;;;2.15;;
67516;SDS011;68821;59.134;37.894;2023-12-29T06:19:14;7.25;;;2.60;;
67516;SDS011;68821;59.134;37.894;2023-12-29T06:21:41;10.23;;;2.72;;
67516;SDS011;68821;59.134;37.894;2023-12-29T06:24:09;9.98;;;3.10;;
67516;SDS011;68821;59.134;37.894;2023-12-29T06:26:36;6.25;;;2.63;;
67516;SDS011;68821;59.134;37.894;2023-12-29T06:29:09;6.55;;;2.65;;
67516;SDS011;68821;59.134;37.894;2023-12-29T06:31:35;6.78;;;2.78;;
67516;SDS011;68821;59.134;37.894;2023-12-29T06:34:01;5.95;;;2.85;;
67516;SDS011;68821;59.134;37.894;2023-12-29T06:36:27;7.38;;;3.13;;
67516;SDS011;68821;59.134;37.894;2023-12-29T06:38:53;6.00;;;2.13;;
67516;SDS011;68821;59.134;37.894;2023-12-29T06:41:19;6.85;;;2.97;;
67516;SDS011;68821;59.134;37.894;2023-12-29T06:43:45;7.38;;;2.83;;
67516;SDS011;68821;59.134;37.894;2023-12-29T06:46:11;6.82;;;2.83;;
67516;SDS011;68821;59.134;37.894;2023-12-29T06:48:39;6.25;;;2.83;;
67516;SDS011;68821;59.134;37.894;2023-12-29T06:51:05;7.53;;;2.53;;
67516;SDS011;68821;59.134;37.894;2023-12-29T06:53:32;7.80;;;2.72;;
67516;SDS011;68821;59.134;37.894;2023-12-29T06:55:59;5.63;;;2.38;;
67516;SDS011;68821;59.134;37.894;2023-12-29T06:58:25;6.05;;;2.65;;
67516;SDS011;68821;59.134;37.894;2023-12-29T07:00:51;8.02;;;2.80;;
67516;SDS011;68821;59.134;37.894;2023-12-29T07:03:17;7.93;;;2.47;;
67516;SDS011;68821;59.134;37.894;2023-12-29T07:05:43;6.88;;;2.90;;
67516;SDS011;68821;59.134;37.894;2023-12-29T07:08:12;8.98;;;3.42;;
67516;SDS011;68821;59.134;37.894;2023-12-29T07:10:39;5.85;;;2.72;;
67516;SDS011;68821;59.134;37.894;2023-12-29T07:13:05;7.22;;;2.35;;
67516;SDS011;68821;59.134;37.894;2023-12-29T07:15:31;6.70;;;2.83;;
67516;SDS011;68821;59.134;37.894;2023-12-29T07:17:57;8.13;;;3.10;;
67516;SDS011;68821;59.134;37.894;2023-12-29T07:20:23;9.82;;;2.97;;
67516;SDS011;68821;59.134;37.894;2023-12-29T07:22:49;8.57;;;3.33;;
67516;SDS011;68821;59.134;37.894;2023-12-29T07:25:15;6.43;;;2.25;;
67516;SDS011;68821;59.134;37.894;2023-12-29T07:27:42;7.05;;;2.55;;
67516;SDS011;68821;59.134;37.894;2023-12-29T07:30:09;7.30;;;2.63;;
67516;SDS011;68821;59.134;37.894;2023-12-29T07:32:35;9.60;;;2.80;;
67516;SDS011;68821;59.134;37.894;2023-12-29T07:35:02;7.30;;;2.92;;
67516;SDS011;68821;59.134;37.894;2023-12-29T07:37:28;7.30;;;3.00;;
67516;SDS011;68821;59.134;37.894;2023-12-29T07:39:54;8.00;;;2.67;;
67516;SDS011;68821;59.134;37.894;2023-12-29T07:42:21;7.22;;;2.42;;
67516;SDS011;68821;59.134;37.894;2023-12-29T07:44:47;7.18;;;2.67;;
67516;SDS011;68821;59.134;37.894;2023-12-29T07:47:13;5.03;;;2.08;;
67516;SDS011;68821;59.134;37.894;2023-12-29T07:49:41;6.95;;;2.35;;
67516;SDS011;68821;59.134;37.894;2023-12-29T07:52:08;5.88;;;2.50;;
67516;SDS011;68821;59.134;37.894;2023-12-29T07:54:34;9.85;;;4.97;;
67516;SDS011;68821;59.134;37.894;2023-12-29T07:57:01;5.95;;;2.83;;
67516;SDS011;68821;59.134;37.894;2023-12-29T07:59:27;8.30;;;2.85;;
67516;SDS011;68821;59.134;37.894;2023-12-29T08:01:53;7.05;;;2.65;;
67516;SDS011;68821;59.134;37.894;2023-12-29T08:04:19;6.82;;;3.10;;
67516;SDS011;68821;59.134;37.894;2023-12-29T08:06:45;6.53;;;2.83;;
67516;SDS011;68821;59.134;37.894;2023-12-29T08:09:12;8.52;;;3.30;;
67516;SDS011;68821;59.134;37.894;2023-12-29T08:11:38;6.78;;;3.28;;
67516;SDS011;68821;59.134;37.894;2023-12-29T08:14:04;8.77;;;2.60;;
67516;SDS011;68821;59.134;37.894;2023-12-29T08:16:32;7.78;;;2.50;;
67516;SDS011;68821;59.134;37.894;2023-12-29T08:18:58;7.22;;;2.25;;
67516;SDS011;68821;59.134;37.894;2023-12-29T08:21:24;5.78;;;2.55;;
67516;SDS011;68821;59.134;37.894;2023-12-29T08:23:50;6.20;;;2.38;;
67516;SDS011;68821;59.134;37.894;2023-12-29T08:26:16;7.50;;;2.83;;
67516;SDS011;68821;59.134;37.894;2023-12-29T08:28:42;7.60;;;2.20;;
67516;SDS011;68821;59.134;37.894;2023-12-29T08:31:08;8.88;;;2.80;;
67516;SDS011;68821;59.134;37.894;2023-12-29T08:33:34;5.18;;;2.53;;
67516;SDS011;68821;59.134;37.894;2023-12-29T08:36:01;5.85;;;2.22;;
67516;SDS011;68821;59.134;37.894;2023-12-29T08:38:29;7.03;;;2.13;;
67516;SDS011;68821;59.134;37.894;2023-12-29T08:41:03;6.05;;;2.15;;
67516;SDS011;68821;59.134;37.894;2023-12-29T08:43:30;8.02;;;2.40;;
67516;SDS011;68821;59.134;37.894;2023-12-29T08:45:56;4.32;;;1.95;;
67516;SDS011;68821;59.134;37.894;2023-12-29T08:48:22;6.95;;;2.42;;
67516;SDS011;68821;59.134;37.894;2023-12-29T08:50:49;6.43;;;2.42;;
67516;SDS011;68821;59.134;37.894;2023-12-29T08:53:16;8.48;;;2.63;;
67516;SDS011;68821;59.134;37.894;2023-12-29T08:55:43;5.75;;;2.47;;
67516;SDS011;68821;59.134;37.894;2023-12-29T08:58:09;9.80;;;2.40;;
67516;SDS011;68821;59.134;37.894;2023-12-29T09:00:35;5.40;;;2.10;;
67516;SDS011;68821;59.134;37.894;2023-12-29T09:03:01;5.65;;;2.13;;
67516;SDS011;68821;59.134;37.894;2023-12-29T09:05:27;5.72;;;2.42;;
67516;SDS011;68821;59.134;37.894;2023-12-29T09:07:53;6.07;;;2.28;;
67516;SDS011;68821;59.134;37.894;2023-12-29T09:10:19;5.88;;;2.20;;
67516;SDS011;68821;59.134;37.894;2023-12-29T09:12:46;7.03;;;2.40;;
67516;SDS011;68821;59.134;37.894;2023-12-29T09:15:12;6.18;;;1.92;;
67516;SDS011;68821;59.134;37.894;2023-12-29T09:17:39;6.78;;;2.15;;
67516;SDS011;68821;59.134;37.894;2023-12-29T09:20:05;6.00;;;2.28;;
67516;SDS011;68821;59.134;37.894;2023-12-29T09:24:59;4.75;;;2.13;;
67516;SDS011;68821;59.134;37.894;2023-12-29T09:27:25;5.88;;;2.20;;
67516;SDS011;68821;59.134;37.894;2023-12-29T09:29:51;5.85;;;2.40;;
67516;SDS011;68821;59.134;37.894;2023-12-29T09:32:17;9.57;;;4.50;;
67516;SDS011;68821;59.134;37.894;2023-12-29T09:34:43;7.82;;;2.58;;
67516;SDS011;68821;59.134;37.894;2023-12-29T09:37:09;4.35;;;1.48;;
67516;SDS011;68821;59.134;37.894;2023-12-29T09:39:35;8.90;;;2.63;;
67516;SDS011;68821;59.134;37.894;2023-12-29T09:42:01;6.15;;;2.65;;
67516;SDS011;68821;59.134;37.894;2023-12-29T09:44:30;7.68;;;2.67;;
67516;SDS011;68821;59.134;37.894;2023-12-29T09:49:26;4.97;;;1.92;;
67516;SDS011;68821;59.134;37.894;2023-12-29T09:51:57;5.18;;;1.95;;
67516;SDS011;68821;59.134;37.894;2023-12-29T09:54:24;5.50;;;2.03;;
67516;SDS011;68821;59.134;37.894;2023-12-29T09:56:51;6.80;;;1.92;;
67516;SDS011;68821;59.134;37.894;2023-12-29T09:59:17;6.13;;;2.58;;
67516;SDS011;68821;59.134;37.894;2023-12-29T10:01:44;5.47;;;2.30;;
67516;SDS011;68821;59.134;37.894;2023-12-29T10:04:11;5.10;;;1.90;;
67516;SDS011;68821;59.134;37.894;2023-12-29T10:06:39;7.30;;;2.42;;
67516;SDS011;68821;59.134;37.894;2023-12-29T10:09:11;6.28;;;2.55;;
67516;SDS011;68821;59.134;37.894;2023-12-29T10:11:38;7.78;;;2.72;;
67516;SDS011;68821;59.134;37.894;2023-12-29T10:14:19;8.82;;;2.30;;
67516;SDS011;68821;59.134;37.894;2023-12-29T10:16:54;6.95;;;2.20;;
67516;SDS011;68821;59.134;37.894;2023-12-29T10:19:41;7.13;;;2.90;;
67516;SDS011;68821;59.134;37.894;2023-12-29T10:23:19;8.35;;;2.53;;
67516;SDS011;68821;59.134;37.894;2023-12-29T10:25:25;6.90;;;2.55;;
67516;SDS011;68821;59.134;37.894;2023-12-29T10:27:51;7.32;;;2.58;;
67516;SDS011;68821;59.134;37.894;2023-12-29T10:30:18;7.43;;;3.03;;
67516;SDS011;68821;59.134;37.894;2023-12-29T10:32:49;7.25;;;2.85;;
67516;SDS011;68821;59.134;37.894;2023-12-29T10:35:16;6.20;;;2.20;;
67516;SDS011;68821;59.134;37.894;2023-12-29T10:37:42;9.13;;;3.17;;
67516;SDS011;68821;59.134;37.894;2023-12-29T10:40:08;6.75;;;2.80;;
67516;SDS011;68821;59.134;37.894;2023-12-29T10:42:34;8.52;;;3.15;;
67516;SDS011;68821;59.134;37.894;2023-12-29T10:45:07;8.77;;;2.85;;
67516;SDS011;68821;59.134;37.894;2023-12-29T10:47:35;7.88;;;2.90;;
67516;SDS011;68821;59.134;37.894;2023-12-29T10:50:02;8.80;;;2.70;;
67516;SDS011;68821;59.134;37.894;2023-12-29T10:52:32;15.60;;;5.93;;
67516;SDS011;68821;59.134;37.894;2023-12-29T10:55:06;15.88;;;5.93;;
67516;SDS011;68821;59.134;37.894;2023-12-29T10:57:33;13.32;;;6.05;;
67516;SDS011;68821;59.134;37.894;2023-12-29T11:00:00;17.80;;;7.53;;
67516;SDS011;68821;59.134;37.894;2023-12-29T11:02:26;22.38;;;8.80;;
67516;SDS011;68821;59.134;37.894;2023-12-29T11:07:39;20.38;;;9.82;;
67516;SDS011;68821;59.134;37.894;2023-12-29T11:10:09;29.13;;;11.13;;
67516;SDS011;68821;59.134;37.894;2023-12-29T11:12:36;28.73;;;11.07;;
67516;SDS011;68821;59.134;37.894;2023-12-29T11:15:06;25.38;;;11.55;;
67516;SDS011;68821;59.134;37.894;2023-12-29T11:17:33;24.30;;;9.73;;
67516;SDS011;68821;59.134;37.894;2023-12-29T11:20:01;35.72;;;11.80;;
67516;SDS011;68821;59.134;37.894;2023-12-29T11:22:29;32.28;;;14.38;;
67516;SDS011;68821;59.134;37.894;2023-12-29T11:24:56;29.80;;;14.00;;
67516;SDS011;68821;59.134;37.894;2023-12-29T11:27:26;28.05;;;12.20;;
67516;SDS011;68821;59.134;37.894;2023-12-29T11:29:59;27.08;;;11.52;;
67516;SDS011;68821;59.134;37.894;2023-12-29T11:32:49;25.15;;;10.88;;
67516;SDS011;68821;59.134;37.894;2023-12-29T11:35:23;23.05;;;9.32;;
67516;SDS011;68821;59.134;37.894;2023-12-29T11:43:58;32.60;;;11.45;;
67516;SDS011;68821;59.134;37.894;2023-12-29T11:46:43;31.75;;;10.63;;
67516;SDS011;68821;59.134;37.894;2023-12-29T11:49:10;22.02;;;8.07;;
67516;SDS011;68821;59.134;37.894;2023-12-29T11:51:39;18.25;;;7.93;;
67516;SDS011;68821;59.134;37.894;2023-12-29T11:54:09;25.27;;;9.05;;
67516;SDS011;68821;59.134;37.894;2023-12-29T11:56:38;22.70;;;8.70;;
67516;SDS011;68821;59.134;37.894;2023-12-29T11:59:13;19.98;;;8.93;;
67516;SDS011;68821;59.134;37.894;2023-12-29T12:01:46;20.77;;;9.27;;
67516;SDS011;68821;59.134;37.894;2023-12-29T12:07:17;20.83;;;8.90;;
67516;SDS011;68821;59.134;37.894;2023-12-29T12:12:48;21.00;;;7.90;;
67516;SDS011;68821;59.134;37.894;2023-12-29T12:17:52;14.68;;;5.93;;
67516;SDS011;68821;59.134;37.894;2023-12-29T12:20:19;16.20;;;7.40;;
67516;SDS011;68821;59.134;37.894;2023-12-29T12:22:47;13.85;;;6.43;;
67516;SDS011;68821;59.134;37.894;2023-12-29T12:25:22;16.52;;;7.13;;
67516;SDS011;68821;59.134;37.894;2023-12-29T12:27:52;18.92;;;7.55;;
67516;SDS011;68821;59.134;37.894;2023-12-29T12:30:18;14.45;;;6.57;;
67516;SDS011;68821;59.134;37.894;2023-12-29T12:32:45;14.82;;;6.15;;
67516;SDS011;68821;59.134;37.894;2023-12-29T12:35:15;19.15;;;7.18;;
67516;SDS011;68821;59.134;37.894;2023-12-29T12:37:42;15.82;;;6.53;;
67516;SDS011;68821;59.134;37.894;2023-12-29T12:40:08;14.15;;;7.00;;
67516;SDS011;68821;59.134;37.894;2023-12-29T12:42:38;17.92;;;7.18;;
67516;SDS011;68821;59.134;37.894;2023-12-29T12:45:11;8.30;;;3.90;;
67516;SDS011;68821;59.134;37.894;2023-12-29T12:47:43;8.07;;;3.15;;
67516;SDS011;68821;59.134;37.894;2023-12-29T12:50:15;7.80;;;2.97;;
67516;SDS011;68821;59.134;37.894;2023-12-29T12:52:42;8.93;;;3.45;;
67516;SDS011;68821;59.134;37.894;2023-12-29T12:55:08;8.77;;;3.75;;
67516;SDS011;68821;59.134;37.894;2023-12-29T12:57:36;9.50;;;3.65;;
67516;SDS011;68821;59.134;37.894;2023-12-29T13:00:03;7.05;;;3.30;;
67516;SDS011;68821;59.134;37.894;2023-12-29T13:02:31;9.38;;;3.33;;
67516;SDS011;68821;59.134;37.894;2023-12-29T13:04:59;7.63;;;2.80;;
67516;SDS011;68821;59.134;37.894;2023-12-29T13:07:25;6.97;;;2.58;;
67516;SDS011;68821;59.134;37.894;2023-12-29T13:09:51;7.80;;;2.75;;
67516;SDS011;68821;59.134;37.894;2023-12-29T13:12:18;6.43;;;2.33;;
67516;SDS011;68821;59.134;37.894;2023-12-29T13:14:45;8.68;;;3.28;;
67516;SDS011;68821;59.134;37.894;2023-12-29T13:17:13;7.88;;;3.20;;
67516;SDS011;68821;59.134;37.894;2023-12-29T13:19:41;9.10;;;3.03;;
67516;SDS011;68821;59.134;37.894;2023-12-29T13:22:09;10.55;;;3.28;;
67516;SDS011;68821;59.134;37.894;2023-12-29T13:24:46;7.60;;;2.97;;
67516;SDS011;68821;59.134;37.894;2023-12-29T13:27:12;7.45;;;2.83;;
67516;SDS011;68821;59.134;37.894;2023-12-29T13:29:39;8.25;;;2.67;;
67516;SDS011;68821;59.134;37.894;2023-12-29T13:32:10;8.82;;;3.00;;
67516;SDS011;68821;59.134;37.894;2023-12-29T13:37:23;7.85;;;3.30;;
67516;SDS011;68821;59.134;37.894;2023-12-29T13:40:01;8.90;;;3.55;;
67516;SDS011;68821;59.134;37.894;2023-12-29T13:42:50;11.57;;;4.28;;
67516;SDS011;68821;59.134;37.894;2023-12-29T13:45:19;9.80;;;3.72;;
67516;SDS011;68821;59.134;37.894;2023-12-29T13:47:46;8.40;;;3.60;;
67516;SDS011;68821;59.134;37.894;2023-12-29T13:50:12;9.55;;;3.72;;
67516;SDS011;68821;59.134;37.894;2023-12-29T13:52:38;13.10;;;4.03;;
67516;SDS011;68821;59.134;37.894;2023-12-29T13:55:05;9.90;;;3.50;;
67516;SDS011;68821;59.134;37.894;2023-12-29T14:00:14;6.85;;;3.10;;
67516;SDS011;68821;59.134;37.894;2023-12-29T14:02:45;7.07;;;3.35;;
67516;SDS011;68821;59.134;37.894;2023-12-29T14:07:58;7.22;;;2.95;;
67516;SDS011;68821;59.134;37.894;2023-12-29T14:10:33;10.52;;;4.13;;
67516;SDS011;68821;59.134;37.894;2023-12-29T14:13:05;7.18;;;3.50;;
67516;SDS011;68821;59.134;37.894;2023-12-29T14:15:36;10.52;;;3.67;;
67516;SDS011;68821;59.134;37.894;2023-12-29T14:18:04;7.32;;;3.10;;
67516;SDS011;68821;59.134;37.894;2023-12-29T14:20:52;8.77;;;3.13;;
67516;SDS011;68821;59.134;37.894;2023-12-29T14:23:18;10.52;;;5.18;;
67516;SDS011;68821;59.134;37.894;2023-12-29T14:25:45;9.00;;;3.80;;
67516;SDS011;68821;59.134;37.894;2023-12-29T14:28:17;7.38;;;2.55;;
67516;SDS011;68821;59.134;37.894;2023-12-29T14:30:44;7.53;;;3.60;;
67516;SDS011;68821;59.134;37.894;2023-12-29T14:33:11;7.25;;;2.83;;
67516;SDS011;68821;59.134;37.894;2023-12-29T14:35:37;5.65;;;2.75;;
67516;SDS011;68821;59.134;37.894;2023-12-29T14:38:04;6.38;;;2.75;;
67516;SDS011;68821;59.134;37.894;2023-12-29T14:40:31;7.65;;;2.22;;
67516;SDS011;68821;59.134;37.894;2023-12-29T14:43:01;9.32;;;2.30;;
67516;SDS011;68821;59.134;37.894;2023-12-29T14:45:28;6.13;;;2.40;;
67516;SDS011;68821;59.134;37.894;2023-12-29T14:48:00;6.35;;;2.08;;
67516;SDS011;68821;59.134;37.894;2023-12-29T14:50:26;7.32;;;3.10;;
67516;SDS011;68821;59.134;37.894;2023-12-29T14:52:52;9.60;;;4.07;;
67516;SDS011;68821;59.134;37.894;2023-12-29T14:55:19;6.15;;;2.42;;
67516;SDS011;68821;59.134;37.894;2023-12-29T14:57:46;5.20;;;2.15;;
67516;SDS011;68821;59.134;37.894;2023-12-29T15:00:13;5.38;;;1.98;;
67516;SDS011;68821;59.134;37.894;2023-12-29T15:02:40;6.97;;;2.47;;
67516;SDS011;68821;59.134;37.894;2023-12-29T15:05:08;9.38;;;3.03;;
67516;SDS011;68821;59.134;37.894;2023-12-29T15:07:34;6.78;;;2.28;;
67516;SDS011;68821;59.134;37.894;2023-12-29T15:10:01;7.25;;;3.03;;
67516;SDS011;68821;59.134;37.894;2023-12-29T15:12:27;5.75;;;2.30;;
67516;SDS011;68821;59.134;37.894;2023-12-29T15:14:53;5.78;;;1.88;;
67516;SDS011;68821;59.134;37.894;2023-12-29T15:17:19;7.47;;;2.95;;